createdAt,value
2023-04-26T00:00:35.673Z,72.00317383
2023-04-26T00:01:36.647Z,71.89941406
2023-04-26T00:02:38.417Z,71.7956543
2023-04-26T00:03:40.274Z,71.89941406
2023-04-26T00:04:41.073Z,71.7956543
2023-04-26T00:05:42.672Z,71.59423828
2023-04-26T00:06:45.229Z,71.7956543
2023-04-26T00:07:47.200Z,72.03369141
2023-04-26T00:08:48.775Z,72.24121094
2023-04-26T00:09:50.144Z,72.54638672
2023-04-26T00:10:51.629Z,72.54638672
2023-04-26T00:11:53.173Z,72.44262695
2023-04-26T00:12:55.217Z,72.24121094
2023-04-26T00:13:56.683Z,72.24121094
2023-04-26T00:14:58.250Z,72.24121094
2023-04-26T00:15:59.183Z,72.54638672
2023-04-26T00:17:01.100Z,72.47924805
2023-04-26T00:18:33.140Z,72.47924805
2023-04-26T00:19:34.522Z,72.47924805
2023-04-26T00:20:36.249Z,72.47924805
2023-04-26T00:21:37.652Z,72.37548828
2023-04-26T00:22:39.256Z,72.27172852
2023-04-26T00:23:41.174Z,72.37548828
2023-04-26T00:24:42.557Z,72.47924805
2023-04-26T00:25:44.672Z,72.58300781
2023-04-26T00:26:46.223Z,72.58300781
2023-04-26T00:27:47.336Z,72.78442383
2023-04-26T00:28:50.446Z,72.88818359
2023-04-26T00:29:51.651Z,72.99194336
2023-04-26T00:30:53.152Z,72.99194336
2023-04-26T00:31:54.689Z,72.99194336
2023-04-26T00:32:55.690Z,72.78442383
2023-04-26T00:33:57.281Z,72.68066406
2023-04-26T00:34:59.463Z,72.37548828
2023-04-26T00:36:01.703Z,72.0703125
2023-04-26T00:37:33.700Z,72.17407227
2023-04-26T00:38:35.160Z,72.17407227
2023-04-26T00:39:36.691Z,72.17407227
2023-04-26T00:40:38.014Z,72.17407227
2023-04-26T00:41:39.919Z,72.17407227
2023-04-26T00:42:41.627Z,72.27172852
2023-04-26T00:43:43.159Z,72.37548828
2023-04-26T00:44:45.020Z,72.61352539
2023-04-26T00:45:46.586Z,72.71728516
2023-04-26T00:46:49.214Z,72.47924805
2023-04-26T00:47:50.730Z,72.17407227
2023-04-26T00:48:52.386Z,71.96655273
2023-04-26T00:49:53.004Z,72.0703125
2023-04-26T00:50:54.544Z,72.41210938
2023-04-26T00:51:56.109Z,72.71728516
2023-04-26T00:52:57.724Z,72.61352539
2023-04-26T00:53:59.676Z,72.61352539
2023-04-26T00:55:32.114Z,72.50976563
2023-04-26T00:56:33.042Z,72.30834961
2023-04-26T00:57:34.667Z,71.99707031
2023-04-26T00:58:36.225Z,72.20458984
2023-04-26T00:59:37.722Z,72.30834961
2023-04-26T01:00:39.662Z,72.65014648
2023-04-26T01:01:40.829Z,72.8515625
2023-04-26T01:02:42.306Z,73.05908203
2023-04-26T01:03:43.943Z,73.26660156
2023-04-26T01:04:45.159Z,73.26660156
2023-04-26T01:05:46.620Z,73.29711914
2023-04-26T01:06:48.209Z,73.29711914
2023-04-26T01:07:49.697Z,73.36425781
2023-04-26T01:08:51.412Z,73.1628418
2023-04-26T01:09:52.646Z,73.05908203
2023-04-26T01:10:54.115Z,72.8515625
2023-04-26T01:11:55.671Z,72.54638672
2023-04-26T01:12:57.214Z,72.65014648
2023-04-26T01:13:58.651Z,72.65014648
2023-04-26T01:15:00.195Z,72.54638672
2023-04-26T01:16:32.198Z,72.44262695
2023-04-26T01:17:33.760Z,72.65014648
2023-04-26T01:18:35.649Z,72.44262695
2023-04-26T01:19:37.098Z,72.65014648
2023-04-26T01:20:38.698Z,72.75390625
2023-04-26T01:21:40.133Z,72.8515625
2023-04-26T01:22:41.660Z,72.75390625
2023-04-26T01:23:43.229Z,72.65014648
2023-04-26T01:24:45.110Z,72.44262695
2023-04-26T01:25:47.140Z,72.54638672
2023-04-26T01:26:48.795Z,72.44262695
2023-04-26T01:27:50.172Z,72.44262695
2023-04-26T01:28:51.937Z,72.54638672
2023-04-26T01:29:53.202Z,72.44262695
2023-04-26T01:30:54.700Z,72.33886719
2023-04-26T01:31:56.139Z,72.5769043
2023-04-26T01:32:57.085Z,72.68066406
2023-04-26T01:33:58.668Z,72.13745117
2023-04-26T01:35:00.164Z,71.82617188
2023-04-26T01:36:32.063Z,72.06420898
2023-04-26T01:37:33.640Z,72.37548828
2023-04-26T01:38:35.154Z,72.5769043
2023-04-26T01:39:36.739Z,72.88818359
2023-04-26T01:40:38.044Z,73.1262207
2023-04-26T01:41:39.552Z,72.88818359
2023-04-26T01:42:41.190Z,73.02246094
2023-04-26T01:43:42.669Z,73.02246094
2023-04-26T01:44:43.987Z,72.91870117
2023-04-26T01:45:45.591Z,72.82104492
2023-04-26T01:46:47.198Z,72.82104492
2023-04-26T01:47:48.676Z,72.47924805
2023-04-26T01:48:50.531Z,72.50976563
2023-04-26T01:49:52.165Z,72.27172852
2023-04-26T01:50:53.678Z,72.16796875
2023-04-26T01:51:55.626Z,71.96655273
2023-04-26T01:52:57.214Z,72.06420898
2023-04-26T01:53:59.079Z,72.10083008
2023-04-26T01:55:31.634Z,72.30834961
2023-04-26T01:56:33.022Z,72.20458984
2023-04-26T01:57:34.512Z,72.20458984
2023-04-26T01:58:36.166Z,72.54638672
2023-04-26T01:59:37.667Z,73.1628418
2023-04-26T02:00:38.858Z,73.26660156
2023-04-26T02:01:41.028Z,73.26660156
2023-04-26T02:02:43.276Z,72.95532227
2023-04-26T02:03:45.161Z,72.74780273
2023-04-26T02:04:46.724Z,72.95532227
2023-04-26T02:05:48.250Z,73.26660156
2023-04-26T02:06:49.690Z,73.36425781
2023-04-26T02:07:51.130Z,73.1628418
2023-04-26T02:08:53.017Z,73.05908203
2023-04-26T02:09:54.661Z,73.26660156
2023-04-26T02:10:56.193Z,73.36425781
2023-04-26T02:11:58.345Z,72.8515625
2023-04-26T02:13:00.784Z,72.65014648
2023-04-26T02:14:33.255Z,72.20458984
2023-04-26T02:15:35.287Z,72.33886719
2023-04-26T02:16:37.204Z,72.44262695
2023-04-26T02:17:38.754Z,72.33886719
2023-04-26T02:18:39.578Z,72.54638672
2023-04-26T02:19:41.170Z,72.54638672
2023-04-26T02:20:43.016Z,72.65014648
2023-04-26T02:21:45.222Z,72.54638672
2023-04-26T02:22:47.303Z,72.65014648
2023-04-26T02:23:49.196Z,72.65014648
2023-04-26T02:24:51.236Z,72.44262695
2023-04-26T02:25:53.191Z,72.33886719
2023-04-26T02:26:55.254Z,72.23510742
2023-04-26T02:27:56.664Z,71.99707031
2023-04-26T02:28:58.128Z,72.10083008
2023-04-26T02:30:00.274Z,71.69189453
2023-04-26T02:31:32.705Z,71.69189453
2023-04-26T02:32:34.305Z,71.69189453
2023-04-26T02:33:36.147Z,71.82617188
2023-04-26T02:34:37.670Z,71.92993164
2023-04-26T02:35:38.693Z,72.13134766
2023-04-26T02:36:40.101Z,72.23510742
2023-04-26T02:37:41.602Z,72.33886719
2023-04-26T02:38:43.155Z,72.44262695
2023-04-26T02:39:45.672Z,72.44262695
2023-04-26T02:40:47.161Z,72.54638672
2023-04-26T02:41:48.647Z,72.54638672
2023-04-26T02:42:50.173Z,72.33886719
2023-04-26T02:43:51.656Z,72.27172852
2023-04-26T02:44:53.376Z,72.33886719
2023-04-26T02:45:55.141Z,72.13134766
2023-04-26T02:46:56.670Z,71.82617188
2023-04-26T02:47:58.259Z,72.13134766
2023-04-26T02:49:30.557Z,72.06420898
2023-04-26T02:50:32.298Z,72.37548828
2023-04-26T02:51:33.678Z,72.47314453
2023-04-26T02:52:35.151Z,72.5769043
2023-04-26T02:53:36.677Z,72.5769043
2023-04-26T02:54:38.193Z,72.16796875
2023-04-26T02:55:39.632Z,72.06420898
2023-04-26T02:56:41.595Z,72.16796875
2023-04-26T02:57:43.060Z,72.06420898
2023-04-26T02:58:44.629Z,71.82617188
2023-04-26T02:59:46.033Z,71.61865234
2023-04-26T03:00:47.723Z,71.51489258
2023-04-26T03:01:48.539Z,71.51489258
2023-04-26T03:02:50.213Z,71.44775391
2023-04-26T03:03:51.731Z,71.75292969
2023-04-26T03:04:53.660Z,71.85668945
2023-04-26T03:05:55.146Z,71.85668945
2023-04-26T03:06:56.041Z,72.06420898
2023-04-26T03:07:57.560Z,72.06420898
2023-04-26T03:09:30.710Z,72.16796875
2023-04-26T03:10:32.059Z,72.27172852
2023-04-26T03:11:33.525Z,72.27172852
2023-04-26T03:12:35.036Z,72.40600586
2023-04-26T03:13:36.583Z,72.27172852
2023-04-26T03:14:38.173Z,72.16796875
2023-04-26T03:15:39.719Z,72.37548828
2023-04-26T03:16:41.508Z,71.96044922
2023-04-26T03:17:43.216Z,71.96044922
2023-04-26T03:18:45.150Z,71.75292969
2023-04-26T03:19:46.648Z,71.55151367
2023-04-26T03:20:48.146Z,71.96044922
2023-04-26T03:21:49.631Z,71.75292969
2023-04-26T03:22:51.147Z,71.65527344
2023-04-26T03:23:52.122Z,71.55151367
2023-04-26T03:24:53.733Z,71.55151367
2023-04-26T03:25:55.108Z,71.34399414
2023-04-26T03:26:56.732Z,71.44775391
2023-04-26T03:27:58.160Z,71.65527344
2023-04-26T03:29:30.297Z,71.65527344
2023-04-26T03:30:32.090Z,71.55151367
2023-04-26T03:31:33.672Z,71.03881836
2023-04-26T03:32:35.219Z,71.13647461
2023-04-26T03:33:36.676Z,71.37451172
2023-04-26T03:34:38.800Z,71.58203125
2023-04-26T03:35:40.171Z,71.78955078
2023-04-26T03:36:41.703Z,71.68579102
2023-04-26T03:37:43.347Z,71.89331055
2023-04-26T03:38:45.633Z,72.09472656
2023-04-26T03:39:47.168Z,72.30224609
2023-04-26T03:40:48.696Z,72.71728516
2023-04-26T03:41:50.223Z,73.05908203
2023-04-26T03:42:51.653Z,73.36425781
2023-04-26T03:43:53.177Z,73.46801758
2023-04-26T03:44:54.762Z,73.36425781
2023-04-26T03:45:56.227Z,73.57177734
2023-04-26T03:46:57.819Z,73.63891602
2023-04-26T03:48:30.191Z,73.53515625
2023-04-26T03:49:31.682Z,73.4375
2023-04-26T03:50:33.198Z,73.33374023
2023-04-26T03:51:34.629Z,72.81494141
2023-04-26T03:52:36.166Z,72.71728516
2023-04-26T03:53:38.209Z,72.81494141
2023-04-26T03:54:39.647Z,72.71728516
2023-04-26T03:55:41.698Z,72.71728516
2023-04-26T03:56:43.253Z,72.64404297
2023-04-26T03:57:45.108Z,72.8515625
2023-04-26T03:58:46.649Z,73.1628418
2023-04-26T03:59:48.134Z,72.91870117
2023-04-26T04:00:50.673Z,72.61352539
2023-04-26T04:01:52.301Z,72.50976563
2023-04-26T04:02:53.254Z,72.30224609
2023-04-26T04:03:54.868Z,72.30224609
2023-04-26T04:04:57.360Z,72.5402832
2023-04-26T04:06:29.688Z,72.33886719
2023-04-26T04:07:31.199Z,72.30224609
2023-04-26T04:08:33.076Z,71.89331055
2023-04-26T04:09:34.645Z,71.47827148
2023-04-26T04:10:36.680Z,71.78955078
2023-04-26T04:11:38.215Z,71.68579102
2023-04-26T04:12:40.128Z,71.82006836
2023-04-26T04:13:41.604Z,71.92382813
2023-04-26T04:14:43.186Z,71.89331055
2023-04-26T04:15:45.122Z,71.78955078
2023-04-26T04:16:46.657Z,71.78955078
2023-04-26T04:17:48.299Z,71.58203125
2023-04-26T04:18:50.760Z,71.78955078
2023-04-26T04:19:52.098Z,71.58203125
2023-04-26T04:20:53.689Z,71.37451172
2023-04-26T04:21:56.164Z,71.58203125
2023-04-26T04:22:57.753Z,71.61865234
2023-04-26T04:24:30.180Z,71.92382813
2023-04-26T04:25:31.650Z,71.71630859
2023-04-26T04:26:33.407Z,71.82006836
2023-04-26T04:27:35.213Z,71.92382813
2023-04-26T04:28:36.388Z,72.02758789
2023-04-26T04:29:37.343Z,72.13134766
2023-04-26T04:30:39.202Z,73.57177734
2023-04-26T04:31:40.353Z,74.60327148
2023-04-26T04:32:41.670Z,73.02246094
2023-04-26T04:33:43.158Z,72.09472656
2023-04-26T04:34:45.474Z,71.47827148
2023-04-26T04:35:46.676Z,71.47827148
2023-04-26T04:36:48.208Z,71.58203125
2023-04-26T04:37:49.720Z,71.47827148
2023-04-26T04:38:51.928Z,71.37451172
2023-04-26T04:39:53.180Z,71.37451172
2023-04-26T04:40:54.622Z,71.47827148
2023-04-26T04:41:56.674Z,71.68579102
2023-04-26T04:42:58.745Z,71.27685547
2023-04-26T04:44:31.158Z,71.41113281
2023-04-26T04:45:32.697Z,71.68579102
2023-04-26T04:46:34.774Z,73.1262207
2023-04-26T04:47:36.268Z,73.1262207
2023-04-26T04:48:38.148Z,72.50976563
2023-04-26T04:49:39.804Z,71.78955078
2023-04-26T04:50:41.625Z,71.47827148
2023-04-26T04:51:43.162Z,71.27685547
2023-04-26T04:52:44.611Z,71.06933594
2023-04-26T04:53:46.184Z,71.06933594
2023-04-26T04:54:47.730Z,71.06933594
2023-04-26T04:55:49.700Z,71.1730957
2023-04-26T04:56:51.652Z,71.99707031
2023-04-26T04:57:53.170Z,72.50976563
2023-04-26T04:58:54.794Z,73.22998047
2023-04-26T04:59:56.235Z,73.63891602
2023-04-26T05:00:57.109Z,72.88818359
2023-04-26T05:02:29.764Z,72.99194336
2023-04-26T05:03:31.389Z,72.88818359
2023-04-26T05:04:33.403Z,72.30224609
2023-04-26T05:05:34.978Z,72.61352539
2023-04-26T05:06:36.622Z,73.1262207
2023-04-26T05:07:38.292Z,72.19848633
2023-04-26T05:08:40.713Z,71.89331055
2023-04-26T05:09:42.590Z,71.99707031
2023-04-26T05:10:44.390Z,71.68579102
2023-04-26T05:11:46.176Z,71.58203125
2023-04-26T05:12:47.580Z,71.47827148
2023-04-26T05:13:51.573Z,71.47827148
2023-04-26T05:14:51.445Z,71.58203125
2023-04-26T05:15:53.212Z,71.37451172
2023-04-26T05:16:54.862Z,70.96557617
2023-04-26T05:17:56.250Z,70.86181641
2023-04-26T05:18:57.657Z,71.06933594
2023-04-26T05:20:29.732Z,70.96557617
2023-04-26T05:21:31.167Z,71.27685547
2023-04-26T05:22:32.776Z,71.27685547
2023-04-26T05:23:34.636Z,71.37451172
2023-04-26T05:24:36.178Z,71.24023438
2023-04-26T05:25:37.724Z,71.03881836
2023-04-26T05:26:39.238Z,72.47314453
2023-04-26T05:27:40.760Z,72.16796875
2023-04-26T05:28:42.863Z,71.85668945
2023-04-26T05:29:44.617Z,71.96044922
2023-04-26T05:30:47.197Z,71.75292969
2023-04-26T05:31:48.353Z,72.5769043
2023-04-26T05:32:50.293Z,76.07421875
2023-04-26T05:33:52.500Z,72.99194336
2023-04-26T05:34:54.170Z,74.32861328
2023-04-26T05:35:55.754Z,72.99194336
2023-04-26T05:36:57.760Z,71.2097168
2023-04-26T05:38:30.287Z,71.10595703
2023-04-26T05:39:32.095Z,71.00219727
2023-04-26T05:40:33.688Z,71.10595703
2023-04-26T05:41:35.222Z,71.10595703
2023-04-26T05:42:37.344Z,70.48950195
2023-04-26T05:43:39.249Z,70.28198242
2023-04-26T05:44:41.104Z,70.28198242
2023-04-26T05:45:42.702Z,70.48950195
2023-04-26T05:46:44.287Z,70.28198242
2023-04-26T05:47:46.380Z,70.08056641
2023-04-26T05:48:48.285Z,70.17822266
2023-04-26T05:49:51.648Z,69.8425293
2023-04-26T05:50:53.269Z,69.87304688
2023-04-26T05:51:55.258Z,70.17822266
2023-04-26T05:52:57.325Z,69.87304688
2023-04-26T05:54:29.688Z,70.08056641
2023-04-26T05:55:31.260Z,70.48950195
2023-04-26T05:56:32.177Z,70.69702148
2023-04-26T05:57:33.731Z,70.79467773
2023-04-26T05:58:35.807Z,70.59326172
2023-04-26T05:59:37.698Z,70.79467773
2023-04-26T06:00:39.131Z,70.79467773
2023-04-26T06:01:40.721Z,70.8984375
2023-04-26T06:02:43.024Z,70.79467773
2023-04-26T06:03:45.820Z,70.69702148
2023-04-26T06:04:47.445Z,70.79467773
2023-04-26T06:05:49.307Z,70.79467773
2023-04-26T06:06:50.664Z,70.86791992
2023-04-26T06:07:52.717Z,70.97167969
2023-04-26T06:08:54.294Z,70.55664063
2023-04-26T06:09:56.232Z,70.35522461
2023-04-26T06:11:28.685Z,70.35522461
2023-04-26T06:12:30.286Z,70.14770508
2023-04-26T06:13:32.413Z,70.01342773
2023-04-26T06:14:34.530Z,70.31860352
2023-04-26T06:15:36.151Z,70.31860352
2023-04-26T06:16:37.108Z,70.31860352
2023-04-26T06:17:39.251Z,70.22094727
2023-04-26T06:18:41.403Z,70.31860352
2023-04-26T06:19:43.996Z,70.31860352
2023-04-26T06:20:45.660Z,70.52612305
2023-04-26T06:21:47.384Z,70.52612305
2023-04-26T06:22:49.908Z,70.62988281
2023-04-26T06:23:51.990Z,70.52612305
2023-04-26T06:24:53.780Z,70.31860352
2023-04-26T06:25:55.738Z,70.22094727
2023-04-26T06:27:28.725Z,70.62988281
2023-04-26T06:28:31.007Z,70.62988281
2023-04-26T06:29:32.836Z,70.3918457
2023-04-26T06:30:34.919Z,70.59936523
2023-04-26T06:31:36.718Z,70.59936523
2023-04-26T06:32:38.448Z,70.49560547
2023-04-26T06:33:40.773Z,70.49560547
2023-04-26T06:34:42.775Z,70.49560547
2023-04-26T06:35:44.855Z,70.59936523
2023-04-26T06:36:46.891Z,70.18432617
2023-04-26T06:37:48.751Z,70.18432617
2023-04-26T06:38:51.700Z,70.08056641
2023-04-26T06:39:54.065Z,70.36132813
2023-04-26T06:40:56.154Z,70.56274414
2023-04-26T06:42:28.114Z,70.45898438
2023-04-26T06:43:29.705Z,70.05004883
2023-04-26T06:44:31.792Z,69.64111328
2023-04-26T06:45:33.741Z,69.64111328
2023-04-26T06:46:35.123Z,69.64111328
2023-04-26T06:47:36.639Z,69.43359375
2023-04-26T06:48:38.257Z,69.23217773
2023-04-26T06:49:40.244Z,69.29931641
2023-04-26T06:50:42.198Z,68.99414063
2023-04-26T06:51:43.961Z,68.78662109
2023-04-26T06:52:46.160Z,68.68286133
2023-04-26T06:53:47.820Z,69.09790039
2023-04-26T06:54:56.557Z,69.09790039
2023-04-26T06:55:51.204Z,68.78662109
2023-04-26T06:56:52.677Z,68.58520508
2023-04-26T06:57:54.152Z,68.78662109
2023-04-26T06:58:56.242Z,69.09790039
2023-04-26T07:00:28.795Z,68.96362305
2023-04-26T07:01:30.692Z,68.85986328
2023-04-26T07:02:32.329Z,68.85986328
2023-04-26T07:03:33.717Z,68.96362305
2023-04-26T07:04:35.450Z,68.45092773
2023-04-26T07:05:36.639Z,67.93823242
2023-04-26T07:06:38.178Z,67.73071289
2023-04-26T07:07:40.068Z,67.73071289
2023-04-26T07:08:41.626Z,68.03588867
2023-04-26T07:09:43.241Z,67.93823242
2023-04-26T07:10:45.159Z,67.52319336
2023-04-26T07:11:46.614Z,68.45092773
2023-04-26T07:12:47.365Z,69.03076172
2023-04-26T07:13:48.322Z,68.51806641
2023-04-26T07:14:49.690Z,68.8293457
2023-04-26T07:15:51.189Z,68.41430664
2023-04-26T07:16:52.650Z,68.62182617
2023-04-26T07:17:54.193Z,68.31665039
2023-04-26T07:18:55.703Z,67.66967773
2023-04-26T07:20:27.637Z,66.85180664
2023-04-26T07:21:28.507Z,66.94946289
2023-04-26T07:22:30.052Z,66.94946289
2023-04-26T07:23:31.723Z,66.94946289
2023-04-26T07:24:33.372Z,66.74804688
2023-04-26T07:25:35.526Z,66.7175293
2023-04-26T07:26:36.359Z,66.91894531
2023-04-26T07:27:37.253Z,66.61376953
2023-04-26T07:28:39.194Z,66.20483398
2023-04-26T07:29:40.671Z,66.10107422
2023-04-26T07:30:42.723Z,66.40625
2023-04-26T07:31:44.645Z,65.69213867
2023-04-26T07:32:46.235Z,65.58837891
2023-04-26T07:33:47.839Z,65.46020508
2023-04-26T07:34:49.729Z,65.25268555
2023-04-26T07:35:51.722Z,64.73999023
2023-04-26T07:36:53.134Z,64.84375
2023-04-26T07:37:54.648Z,64.73999023
2023-04-26T07:38:56.701Z,64.94750977
2023-04-26T07:40:29.255Z,64.84375
2023-04-26T07:41:31.142Z,64.94750977
2023-04-26T07:42:32.784Z,65.66162109
2023-04-26T07:43:34.728Z,65.46020508
2023-04-26T07:44:36.218Z,65.04516602
2023-04-26T07:45:38.283Z,64.73999023
2023-04-26T07:46:40.203Z,64.84375
2023-04-26T07:47:42.291Z,64.94750977
2023-04-26T07:48:44.225Z,65.04516602
2023-04-26T07:49:47.835Z,65.25268555
2023-04-26T07:50:47.784Z,65.14892578
2023-04-26T07:51:50.180Z,64.02587891
2023-04-26T07:52:51.722Z,64.33105469
2023-04-26T07:53:53.079Z,64.33105469
2023-04-26T07:54:54.943Z,63.92211914
2023-04-26T07:56:27.779Z,63.81835938
2023-04-26T07:57:29.635Z,64.12963867
2023-04-26T07:58:31.270Z,64.73999023
2023-04-26T07:59:33.288Z,64.70947266
2023-04-26T08:00:35.268Z,64.61181641
2023-04-26T08:01:37.320Z,64.09912109
2023-04-26T08:02:45.250Z,64.20288086
2023-04-26T08:03:40.921Z,64.30053711
2023-04-26T08:04:42.453Z,64.81323242
2023-04-26T08:05:44.501Z,65.1184082
2023-04-26T08:06:46.277Z,64.81323242
2023-04-26T08:07:48.877Z,64.61181641
2023-04-26T08:08:50.182Z,64.20288086
2023-04-26T08:09:51.831Z,64.40429688
2023-04-26T08:10:53.731Z,64.81323242
2023-04-26T08:11:55.153Z,64.91699219
2023-04-26T08:13:29.292Z,64.61181641
2023-04-26T08:14:28.748Z,64.20288086
2023-04-26T08:15:30.208Z,63.99536133
2023-04-26T08:16:31.812Z,63.99536133
2023-04-26T08:17:33.717Z,64.30053711
2023-04-26T08:18:35.262Z,64.09912109
2023-04-26T08:19:37.298Z,63.89160156
2023-04-26T08:20:39.216Z,63.58642578
2023-04-26T08:21:41.201Z,63.38500977
2023-04-26T08:22:42.647Z,63.17749023
2023-04-26T08:23:44.340Z,63.69018555
2023-04-26T08:24:46.235Z,63.89160156
2023-04-26T08:25:48.230Z,63.99536133
2023-04-26T08:26:49.295Z,62.87231445
2023-04-26T08:27:51.157Z,62.66479492
2023-04-26T08:28:52.695Z,62.76855469
2023-04-26T08:29:55.267Z,63.28125
2023-04-26T08:31:27.759Z,63.48266602
2023-04-26T08:32:29.202Z,63.58642578
2023-04-26T08:33:30.583Z,63.58642578
2023-04-26T08:34:32.373Z,63.48266602
2023-04-26T08:35:34.248Z,63.38500977
2023-04-26T08:36:36.285Z,63.38500977
2023-04-26T08:37:38.252Z,63.48266602
2023-04-26T08:38:40.084Z,64.40429688
2023-04-26T08:39:41.708Z,64.70947266
2023-04-26T08:40:43.320Z,64.70947266
2023-04-26T08:41:45.717Z,65.1184082
2023-04-26T08:42:47.662Z,65.52734375
2023-04-26T08:43:49.143Z,65.52734375
2023-04-26T08:44:50.724Z,65.22216797
2023-04-26T08:45:52.748Z,64.70947266
2023-04-26T08:46:54.206Z,64.70947266
2023-04-26T08:48:26.646Z,64.61181641
2023-04-26T08:49:28.231Z,64.81323242
2023-04-26T08:50:30.492Z,65.25268555
2023-04-26T08:51:32.345Z,65.55786133
2023-04-26T08:52:34.209Z,65.35644531
2023-04-26T08:53:35.708Z,65.04516602
2023-04-26T08:54:37.180Z,64.81323242
2023-04-26T08:55:39.411Z,64.50805664
2023-04-26T08:56:41.251Z,64.50805664
2023-04-26T08:57:43.196Z,64.40429688
2023-04-26T08:58:45.183Z,64.40429688
2023-04-26T08:59:46.716Z,64.61181641
2023-04-26T09:00:48.247Z,64.40429688
2023-04-26T09:01:49.829Z,64.50805664
2023-04-26T09:02:51.946Z,64.3737793
2023-04-26T09:03:53.941Z,64.47753906
2023-04-26T09:04:56.314Z,64.17236328
2023-04-26T09:06:28.734Z,62.73803711
2023-04-26T09:07:30.187Z,62.63427734
2023-04-26T09:08:31.619Z,62.73803711
2023-04-26T09:09:33.106Z,63.14697266
2023-04-26T09:10:34.825Z,63.04321289
2023-04-26T09:11:36.733Z,62.66479492
2023-04-26T09:12:38.229Z,63.38500977
2023-04-26T09:13:39.615Z,63.45214844
2023-04-26T09:14:41.144Z,63.45214844
2023-04-26T09:15:42.810Z,63.86108398
2023-04-26T09:16:45.785Z,64.06860352
2023-04-26T09:17:47.274Z,63.5559082
2023-04-26T09:18:49.252Z,63.45214844
2023-04-26T09:19:50.634Z,63.65966797
2023-04-26T09:20:52.257Z,63.76342773
2023-04-26T09:21:53.325Z,63.96484375
2023-04-26T09:23:27.158Z,63.83056641
2023-04-26T09:24:28.579Z,64.03808594
2023-04-26T09:25:30.161Z,64.03808594
2023-04-26T09:26:31.716Z,64.1418457
2023-04-26T09:27:33.716Z,64.6484375
2023-04-26T09:28:35.610Z,64.44702148
2023-04-26T09:29:37.171Z,62.68310547
2023-04-26T09:30:38.835Z,62.06665039
2023-04-26T09:31:40.953Z,61.76147461
2023-04-26T09:32:42.753Z,61.76147461
2023-04-26T09:33:44.692Z,62.17041016
2023-04-26T09:34:46.198Z,61.56005859
2023-04-26T09:35:47.713Z,61.15112305
2023-04-26T09:36:49.711Z,61.04736328
2023-04-26T09:37:58.296Z,60.63842773
2023-04-26T09:38:52.912Z,61.2487793
2023-04-26T09:39:54.162Z,61.76147461
2023-04-26T09:41:26.202Z,61.56005859
2023-04-26T09:42:27.716Z,61.2487793
2023-04-26T09:43:29.286Z,61.35253906
2023-04-26T09:44:30.534Z,61.52954102
2023-04-26T09:45:32.273Z,61.12060547
2023-04-26T09:46:34.272Z,61.52954102
2023-04-26T09:47:36.214Z,61.73095703
2023-04-26T09:48:37.758Z,61.52954102
2023-04-26T09:49:39.635Z,61.12060547
2023-04-26T09:50:41.121Z,60.91918945
2023-04-26T09:51:42.799Z,59.69238281
2023-04-26T09:52:44.751Z,58.80126953
2023-04-26T09:53:47.710Z,58.9050293
2023-04-26T09:54:49.155Z,59.58862305
2023-04-26T09:55:50.801Z,59.38720703
2023-04-26T09:56:52.710Z,59.4909668
2023-04-26T09:57:54.708Z,59.38720703
2023-04-26T09:59:27.186Z,59.15527344
2023-04-26T10:00:28.611Z,59.15527344
2023-04-26T10:01:30.656Z,59.56420898
2023-04-26T10:02:32.321Z,59.66186523
2023-04-26T10:03:34.348Z,59.765625
2023-04-26T10:04:36.002Z,59.46044922
2023-04-26T10:05:37.641Z,58.74633789
2023-04-26T10:06:39.340Z,58.85009766
2023-04-26T10:07:41.213Z,57.90405273
2023-04-26T10:08:43.453Z,58.54492188
2023-04-26T10:09:45.679Z,58.0078125
2023-04-26T10:10:46.678Z,58.23364258
2023-04-26T10:11:47.659Z,57.80029297
2023-04-26T10:12:49.305Z,57.72705078
2023-04-26T10:13:51.200Z,57.90405273
2023-04-26T10:14:53.220Z,58.20922852
2023-04-26T10:15:55.158Z,57.80029297
2023-04-26T10:17:27.272Z,57.59887695
2023-04-26T10:18:29.384Z,57.6965332
2023-04-26T10:19:31.126Z,57.6965332
2023-04-26T10:20:32.641Z,57.59887695
2023-04-26T10:21:34.131Z,57.6965332
2023-04-26T10:22:35.684Z,57.39135742
2023-04-26T10:23:37.166Z,56.98852539
2023-04-26T10:24:38.703Z,56.37207031
2023-04-26T10:25:40.619Z,56.95800781
2023-04-26T10:26:42.143Z,59.40551758
2023-04-26T10:27:43.957Z,58.99658203
2023-04-26T10:28:45.705Z,57.47070313
2023-04-26T10:29:47.010Z,57.56835938
2023-04-26T10:30:48.541Z,57.16552734
2023-04-26T10:31:50.170Z,56.85424805
2023-04-26T10:32:51.684Z,57.97729492
2023-04-26T10:33:53.190Z,54.91943359
2023-04-26T10:35:25.621Z,55.9387207
2023-04-26T10:36:27.119Z,55.43212891
2023-04-26T10:37:28.688Z,55.43212891
2023-04-26T10:38:30.179Z,55.32836914
2023-04-26T10:39:31.705Z,55.43212891
2023-04-26T10:40:33.167Z,55.60913086
2023-04-26T10:41:34.124Z,55.30395508
2023-04-26T10:42:35.646Z,54.79125977
2023-04-26T10:43:37.134Z,54.89501953
2023-04-26T10:44:38.938Z,55.09643555
2023-04-26T10:45:40.799Z,54.79125977
2023-04-26T10:46:42.326Z,54.1809082
2023-04-26T10:47:44.348Z,54.9987793
2023-04-26T10:48:47.219Z,52.1484375
2023-04-26T10:49:49.307Z,50.51879883
2023-04-26T10:50:51.161Z,48.78540039
2023-04-26T10:51:52.884Z,49.39575195
2023-04-26T10:52:55.284Z,49.8840332
2023-04-26T10:54:27.185Z,49.37133789
2023-04-26T10:55:28.650Z,49.78027344
2023-04-26T10:56:30.173Z,49.8840332
2023-04-26T10:57:31.821Z,49.98168945
2023-04-26T10:58:33.790Z,49.8840332
2023-04-26T10:59:47.246Z,50.28686523
2023-04-26T11:00:37.676Z,51.00097656
2023-04-26T11:01:39.462Z,52.22167969
2023-04-26T11:02:41.489Z,51.50756836
2023-04-26T11:03:43.358Z,51.61132813
2023-04-26T11:04:45.341Z,51.50756836
2023-04-26T11:05:46.661Z,50.79956055
2023-04-26T11:06:48.242Z,51.20239258
2023-04-26T11:07:50.209Z,51.20239258
2023-04-26T11:08:52.465Z,51.10473633
2023-04-26T11:09:53.730Z,50.8972168
2023-04-26T11:11:25.592Z,51.20239258
2023-04-26T11:12:27.268Z,51.69067383
2023-04-26T11:13:29.216Z,51.99584961
2023-04-26T11:14:30.758Z,52.19726563
2023-04-26T11:15:32.174Z,51.91650391
2023-04-26T11:16:33.656Z,52.02026367
2023-04-26T11:17:35.187Z,52.42919922
2023-04-26T11:18:36.769Z,53.03955078
2023-04-26T11:19:38.747Z,53.03955078
2023-04-26T11:20:40.714Z,51.89208984
2023-04-26T11:21:42.130Z,50.87280273
2023-04-26T11:22:44.037Z,50.56762695
2023-04-26T11:23:45.861Z,50.26245117
2023-04-26T11:24:47.697Z,50.36621094
2023-04-26T11:25:49.148Z,50.14038086
2023-04-26T11:26:50.613Z,49.42626953